Time;durP1;ratioP1;P1;durP2;ratioP2;P2;SDS_P1;SDS_P2;PMS_P1;PMS_P2;Temp;Humidity;BMP_temperature;BMP_pressure;BME280_temperature;BME280_humidity;BME280_pressure;Samples;Min_cycle;Max_cycle;Signal;HPM_P1;HPM_P2
2022/02/26 03:46:22;;;;;;;6.57;2.90;;;5.60;76.70;;;;;;6276707;22;20015;-80
2022/02/26 03:48:48;;;;;;;7.65;2.63;;;5.60;76.70;;;;;;6271890;22;20003;-80
2022/02/26 03:51:14;;;;;;;7.53;2.60;;;5.60;77.30;;;;;;6296405;22;20087;-78
2022/02/26 03:53:41;;;;;;;9.32;2.65;;;5.70;76.20;;;;;;6296758;22;20006;-81
2022/02/26 03:56:07;;;;;;;6.78;2.58;;;5.70;76.10;;;;;;6297112;22;20013;-80
2022/02/26 03:58:33;;;;;;;10.43;2.90;;;5.70;76.20;;;;;;6271455;22;20003;-79
2022/02/26 04:00:59;;;;;;;11.45;3.60;;;5.70;76.10;;;;;;6322847;22;20010;-80
2022/02/26 04:03:25;;;;;;;8.23;3.00;;;5.70;76.00;;;;;;6297822;22;20176;-80
2022/02/26 04:05:51;;;;;;;8.88;2.53;;;5.70;76.30;;;;;;6304230;22;20022;-80
2022/02/26 04:08:17;;;;;;;12.45;3.28;;;5.70;76.40;;;;;;6315101;22;20011;-80
2022/02/26 04:10:42;;;;;;;11.23;3.03;;;5.70;76.80;;;;;;6336892;22;20015;-80
2022/02/26 04:13:09;;;;;;;6.97;3.58;;;5.60;76.90;;;;;;6301068;22;20037;-80
2022/02/26 04:15:35;;;;;;;9.90;2.97;;;5.60;77.30;;;;;;6301156;22;20013;-81
2022/02/26 04:18:01;;;;;;;8.75;3.22;;;5.50;77.50;;;;;;6249705;22;19995;-81
2022/02/26 04:20:27;;;;;;;9.30;3.25;;;5.50;78.00;;;;;;6299092;22;20006;-80
2022/02/26 04:22:52;;;;;;;10.75;3.40;;;5.50;78.50;;;;;;6297875;22;20018;-81
2022/02/26 04:25:18;;;;;;;11.85;3.00;;;5.50;78.40;;;;;;6270835;22;20021;-81
2022/02/26 04:27:44;;;;;;;9.90;3.30;;;5.50;78.30;;;;;;6271057;22;20030;-81
2022/02/26 04:30:11;;;;;;;11.90;3.60;;;5.50;78.10;;;;;;6245180;22;20036;-81
2022/02/26 04:32:38;;;;;;;5.68;2.67;;;5.50;78.00;;;;;;6295690;22;20015;-81
2022/02/26 04:35:05;;;;;;;8.07;3.80;;;5.50;78.10;;;;;;6295693;22;20022;-81
2022/02/26 04:37:31;;;;;;;14.13;4.90;;;5.50;78.10;;;;;;6270529;22;20006;-80
2022/02/26 04:39:59;;;;;;;14.23;4.13;;;5.50;78.10;;;;;;6295767;22;20072;-81
2022/02/26 04:42:26;;;;;;;16.52;5.60;;;5.50;78.10;;;;;;6296334;22;20003;-81
2022/02/26 04:44:52;;;;;;;7.95;3.45;;;5.60;78.20;;;;;;6295921;22;20013;-81
2022/02/26 04:47:18;;;;;;;10.95;4.03;;;5.60;78.10;;;;;;6320270;22;20018;-81
2022/02/26 04:49:44;;;;;;;11.82;3.33;;;5.60;78.10;;;;;;6352976;22;20071;-81
2022/02/26 04:52:10;;;;;;;6.65;2.90;;;5.60;77.90;;;;;;6352828;22;19999;-81
2022/02/26 04:54:35;;;;;;;9.15;2.58;;;5.70;77.70;;;;;;6352730;22;19998;-81
2022/02/26 04:57:01;;;;;;;8.82;3.08;;;5.70;77.40;;;;;;6326818;22;20007;-82
2022/02/26 04:59:27;;;;;;;8.95;3.13;;;5.80;77.30;;;;;;6352865;22;19997;-80
2022/02/26 05:01:53;;;;;;;8.55;2.65;;;5.80;77.30;;;;;;6352529;22;20248;-80
2022/02/26 05:04:19;;;;;;;11.57;3.30;;;5.80;77.20;;;;;;6353447;22;20011;-80
2022/02/26 05:06:45;;;;;;;15.38;3.13;;;5.80;77.20;;;;;;6352801;22;20254;-79
2022/02/26 05:09:11;;;;;;;11.55;3.33;;;5.80;77.60;;;;;;6300579;22;20306;-80
2022/02/26 05:11:36;;;;;;;12.13;3.53;;;5.80;77.50;;;;;;6378727;22;20029;-80
2022/02/26 05:14:02;;;;;;;9.75;3.00;;;5.90;77.50;;;;;;6326584;22;20005;-80
2022/02/26 05:16:28;;;;;;;12.32;3.58;;;5.90;77.70;;;;;;6352564;22;20309;-80
2022/02/26 05:18:54;;;;;;;13.82;3.60;;;5.80;78.10;;;;;;6352814;22;20007;-80
2022/02/26 05:21:20;;;;;;;10.50;2.95;;;5.90;78.00;;;;;;6378897;22;20007;-80
2022/02/26 05:23:45;;;;;;;9.57;2.78;;;5.90;78.60;;;;;;6352726;22;20041;-80
2022/02/26 05:26:12;;;;;;;13.23;3.90;;;5.80;79.20;;;;;;6378767;22;20006;-80
2022/02/26 05:28:39;;;;;;;10.43;3.78;;;5.80;79.40;;;;;;6326499;22;20010;-80
2022/02/26 05:31:05;;;;;;;10.57;3.10;;;5.80;79.50;;;;;;6378776;22;20294;-80
2022/02/26 05:33:35;;;;;;;15.18;4.00;;;5.80;79.80;;;;;;6352239;22;20211;-80
2022/02/26 05:36:03;;;;;;;9.75;3.58;;;5.90;79.70;;;;;;6378740;22;20206;-80
2022/02/26 05:38:28;;;;;;;11.65;3.78;;;5.90;79.60;;;;;;6378649;22;20047;-80
2022/02/26 05:40:54;;;;;;;9.48;2.70;;;5.90;80.10;;;;;;6352429;22;20003;-81
2022/02/26 05:43:20;;;;;;;13.57;4.10;;;6.00;80.30;;;;;;6326548;22;20006;-81
2022/02/26 05:45:47;;;;;;;6.40;3.22;;;5.90;80.50;;;;;;6378267;22;20071;-81
2022/02/26 05:48:12;;;;;;;9.68;3.63;;;5.90;80.80;;;;;;6378997;22;20002;-81
2022/02/26 05:50:38;;;;;;;11.00;4.05;;;6.00;80.80;;;;;;6326673;22;20313;-81
2022/02/26 05:53:04;;;;;;;13.20;3.65;;;6.00;81.10;;;;;;6352454;22;20010;-80
2022/02/26 05:55:31;;;;;;;10.85;3.38;;;5.90;81.90;;;;;;6352568;22;20037;-80
2022/02/26 05:57:57;;;;;;;9.32;3.35;;;5.90;82.20;;;;;;6352735;22;20006;-81
2022/02/26 06:00:24;;;;;;;14.52;3.72;;;5.90;82.40;;;;;;6378714;22;20009;-81
2022/02/26 06:02:50;;;;;;;8.00;4.38;;;5.80;82.50;;;;;;6300401;22;20033;-81
2022/02/26 06:05:15;;;;;;;10.02;3.50;;;5.80;83.00;;;;;;6352498;22;20010;-81
2022/02/26 06:07:41;;;;;;;9.80;3.63;;;5.80;83.10;;;;;;6300411;22;20010;-81
2022/02/26 06:10:08;;;;;;;7.35;3.15;;;5.80;83.70;;;;;;6352853;22;20010;-81
2022/02/26 06:12:34;;;;;;;9.95;3.88;;;5.80;83.60;;;;;;6378466;22;20008;-80
2022/02/26 06:15:00;;;;;;;10.48;3.63;;;5.80;83.70;;;;;;6326642;22;20006;-81
2022/02/26 06:17:26;;;;;;;9.17;3.40;;;5.80;84.20;;;;;;6378538;22;20002;-80
2022/02/26 06:19:52;;;;;;;15.02;4.63;;;5.80;84.40;;;;;;6352492;22;20309;-81
2022/02/26 06:22:17;;;;;;;7.78;3.33;;;5.80;84.20;;;;;;6326331;22;20372;-80
2022/02/26 06:24:43;;;;;;;10.55;3.70;;;5.90;84.40;;;;;;6326352;22;20011;-80
2022/02/26 06:27:09;;;;;;;9.90;3.63;;;5.90;84.30;;;;;;6351995;22;20010;-80
2022/02/26 06:29:35;;;;;;;11.85;3.70;;;6.00;84.60;;;;;;6351531;22;20006;-80
2022/02/26 06:32:01;;;;;;;13.82;3.58;;;6.10;84.30;;;;;;6352052;22;20021;-80
2022/02/26 06:34:30;;;;;;;11.07;3.83;;;6.30;83.40;;;;;;6351943;22;20010;-80
2022/02/26 06:36:55;;;;;;;9.70;3.20;;;6.40;83.00;;;;;;6326910;22;20002;-81
2022/02/26 06:39:22;;;;;;;9.00;3.42;;;6.40;82.70;;;;;;6351373;22;20022;-81
2022/02/26 06:41:48;;;;;;;9.15;3.10;;;6.50;82.50;;;;;;6327740;22;20116;-80
2022/02/26 06:44:14;;;;;;;12.13;4.28;;;6.60;82.40;;;;;;6353372;22;20010;-80
2022/02/26 06:46:41;;;;;;;11.38;4.03;;;6.60;82.10;;;;;;6326940;22;20318;-79
2022/02/26 06:49:08;;;;;;;17.02;4.18;;;6.70;82.00;;;;;;6352750;22;20010;-80
2022/02/26 06:51:34;;;;;;;12.00;3.95;;;6.70;81.80;;;;;;6380558;22;19999;-80
2022/02/26 06:54:01;;;;;;;14.50;4.90;;;6.70;81.70;;;;;;6352670;22;20012;-80
2022/02/26 06:56:27;;;;;;;9.55;3.58;;;6.60;82.00;;;;;;6379339;22;20037;-80
2022/02/26 06:58:54;;;;;;;11.10;4.07;;;6.70;82.30;;;;;;6378795;22;20002;-80
2022/02/26 07:01:20;;;;;;;8.45;3.47;;;6.70;82.40;;;;;;6352649;22;20089;-80
2022/02/26 07:03:46;;;;;;;11.00;3.92;;;6.70;82.40;;;;;;6378960;22;20079;-79
2022/02/26 07:06:12;;;;;;;13.60;3.92;;;6.70;82.50;;;;;;6353014;22;19994;-80
2022/02/26 07:08:38;;;;;;;10.05;3.70;;;6.70;82.60;;;;;;6326448;22;20314;-80
2022/02/26 07:11:04;;;;;;;11.30;3.85;;;6.80;82.50;;;;;;6300794;22;20025;-79
2022/02/26 07:13:31;;;;;;;11.27;4.40;;;6.80;82.20;;;;;;6352127;22;20002;-80
2022/02/26 07:15:58;;;;;;;9.68;3.60;;;6.80;81.90;;;;;;6352295;22;20018;-81
2022/02/26 07:18:24;;;;;;;9.40;3.83;;;6.90;81.70;;;;;;6352656;22;20341;-81
2022/02/26 07:20:50;;;;;;;14.57;3.78;;;6.90;81.80;;;;;;6326504;22;19991;-80
2022/02/26 07:23:17;;;;;;;10.85;4.25;;;6.90;81.90;;;;;;6326301;22;20029;-82
2022/02/26 07:25:45;;;;;;;9.75;3.75;;;6.90;81.90;;;;;;6378390;22;20316;-82
2022/02/26 07:28:15;;;;;;;12.75;3.53;;;6.90;81.70;;;;;;6378432;22;20332;-82
2022/02/26 07:30:42;;;;;;;8.77;3.58;;;7.00;81.60;;;;;;6378566;22;20012;-80
2022/02/26 07:33:08;;;;;;;;;;;7.00;81.60;;;;;;6378403;22;20252;-80
2022/02/26 07:35:35;;;;;;;9.60;3.30;;;7.00;81.20;;;;;;6352121;22;19922;-82
2022/02/26 07:38:02;;;;;;;10.77;4.10;;;7.10;81.20;;;;;;6378334;22;20007;-81
2022/02/26 07:40:28;;;;;;;8.52;3.55;;;7.10;81.00;;;;;;6352569;22;20022;-81
2022/02/26 07:42:54;;;;;;;12.10;3.63;;;7.10;81.00;;;;;;6351875;22;20006;-82
2022/02/26 07:45:20;;;;;;;9.73;4.55;;;7.10;80.90;;;;;;6351910;22;20010;-81
2022/02/26 07:47:47;;;;;;;10.98;3.97;;;7.10;81.40;;;;;;6326480;22;20017;-81
2022/02/26 07:50:13;;;;;;;10.82;3.90;;;7.10;81.00;;;;;;6351583;22;20018;-81
2022/02/26 07:52:39;;;;;;;9.70;3.85;;;7.20;80.80;;;;;;6351362;22;20006;-81
2022/02/26 07:55:06;;;;;;;7.38;3.30;;;7.20;80.50;;;;;;6325890;22;20116;-80
2022/02/26 07:57:32;;;;;;;;;;;7.20;80.40;;;;;;6352400;22;20015;-81
2022/02/26 07:59:58;;;;;;;7.57;3.60;;;7.30;80.40;;;;;;6325276;22;19910;-81
2022/02/26 08:02:24;;;;;;;16.53;4.67;;;7.30;80.50;;;;;;6378186;22;20306;-81
2022/02/26 08:04:50;;;;;;;7.07;3.85;;;7.50;80.30;;;;;;6325821;22;20000;-81
2022/02/26 08:07:17;;;;;;;8.27;2.60;;;7.70;79.70;;;;;;6318114;22;20006;-82
2022/02/26 08:09:43;;;;;;;11.50;3.38;;;7.70;78.30;;;;;;6260957;22;20034;-83
2022/02/26 08:12:10;;;;;;;13.25;3.55;;;7.70;78.20;;;;;;6288053;22;19995;-81
2022/02/26 08:14:37;;;;;;;10.45;2.78;;;7.70;78.00;;;;;;6286389;22;20011;-81
2022/02/26 08:17:03;;;;;;;10.25;3.20;;;7.70;77.80;;;;;;6287435;22;20007;-81
2022/02/26 08:19:29;;;;;;;12.57;3.75;;;7.70;77.40;;;;;;6287807;22;20334;-81
2022/02/26 08:21:55;;;;;;;10.25;3.47;;;7.60;77.50;;;;;;6287579;22;20042;-80
2022/02/26 08:24:21;;;;;;;10.18;3.20;;;7.60;77.80;;;;;;6313714;22;20303;-80
2022/02/26 08:26:47;;;;;;;12.02;3.67;;;7.70;77.60;;;;;;6287809;22;20234;-82
2022/02/26 08:29:13;;;;;;;10.48;2.88;;;7.80;76.80;;;;;;6287736;22;20011;-81
2022/02/26 08:31:39;;;;;;;13.23;3.80;;;7.90;76.90;;;;;;6262557;22;20026;-81
2022/02/26 08:34:05;;;;;;;10.95;3.30;;;8.10;76.50;;;;;;6314225;22;20011;-81
2022/02/26 08:36:31;;;;;;;8.13;3.20;;;8.20;76.20;;;;;;6262711;22;20340;-81
2022/02/26 08:38:56;;;;;;;10.57;3.33;;;8.30;75.60;;;;;;6263212;22;20007;-83
2022/02/26 08:41:22;;;;;;;11.07;3.58;;;8.20;74.80;;;;;;6293499;22;20002;-83
2022/02/26 08:43:48;;;;;;;10.57;2.90;;;8.10;75.50;;;;;;6352202;22;20013;-83
2022/02/26 08:46:14;;;;;;;10.77;3.47;;;8.10;75.50;;;;;;6334065;22;20379;-83
2022/02/26 08:48:40;;;;;;;8.55;3.65;;;8.00;75.60;;;;;;6352029;22;20033;-83
2022/02/26 08:51:06;;;;;;;7.68;3.25;;;7.90;76.80;;;;;;6351829;22;20042;-83
2022/02/26 08:53:32;;;;;;;8.50;2.95;;;7.90;76.90;;;;;;6377887;22;20006;-80
2022/02/26 08:55:58;;;;;;;10.90;3.17;;;7.90;76.90;;;;;;6378796;22;20002;-81
2022/02/26 08:58:24;;;;;;;8.02;3.53;;;7.90;76.80;;;;;;6351498;22;20228;-82
2022/02/26 09:00:51;;;;;;;10.65;3.72;;;7.90;76.90;;;;;;6378279;22;20009;-80
2022/02/26 09:03:17;;;;;;;8.15;3.33;;;8.10;77.20;;;;;;6377729;22;20018;-82
2022/02/26 09:05:44;;;;;;;11.30;3.78;;;8.20;76.90;;;;;;6325957;22;20010;-82
2022/02/26 09:08:10;;;;;;;8.63;4.23;;;8.30;75.90;;;;;;6377647;22;20024;-81
2022/02/26 09:10:37;;;;;;;18.15;3.22;;;8.40;75.70;;;;;;6352100;22;20060;-81
2022/02/26 09:13:03;;;;;;;11.32;3.53;;;8.50;75.20;;;;;;6351733;22;20286;-80
2022/02/26 09:15:30;;;;;;;9.98;3.15;;;8.50;75.00;;;;;;6350902;22;20274;-82
2022/02/26 09:17:56;;;;;;;15.30;3.88;;;8.50;74.50;;;;;;6324720;22;20355;-80
2022/02/26 09:20:22;;;;;;;11.80;3.40;;;8.60;74.90;;;;;;6351896;22;20007;-80
2022/02/26 09:22:48;;;;;;;13.52;3.88;;;8.70;73.70;;;;;;6351630;22;20010;-80
2022/02/26 09:25:15;;;;;;;15.80;3.90;;;8.70;72.60;;;;;;6325123;22;20010;-81
2022/02/26 09:27:43;;;;;;;10.52;3.35;;;8.60;72.60;;;;;;6377086;22;20006;-81
2022/02/26 09:30:11;;;;;;;13.00;4.15;;;8.50;72.20;;;;;;6324524;22;20087;-81
2022/02/26 09:32:37;;;;;;;12.73;2.92;;;8.60;72.30;;;;;;6377382;22;20013;-81
2022/02/26 09:35:03;;;;;;;10.88;3.50;;;8.70;72.10;;;;;;6351643;22;20030;-80
2022/02/26 09:37:29;;;;;;;15.40;3.45;;;8.80;71.20;;;;;;6377221;22;20239;-80
2022/02/26 09:39:58;;;;;;;12.95;3.60;;;8.80;70.90;;;;;;6325439;22;20003;-81
2022/02/26 09:42:26;;;;;;;7.15;2.50;;;9.00;71.20;;;;;;6351119;22;20285;-81
2022/02/26 09:44:53;;;;;;;15.38;2.95;;;9.20;70.00;;;;;;6376379;22;20005;-81
2022/02/26 09:47:20;;;;;;;14.93;3.05;;;9.40;69.70;;;;;;6378063;22;20202;-81
2022/02/26 09:49:45;;;;;;;13.82;3.42;;;9.40;68.60;;;;;;6350858;22;20001;-81
2022/02/26 09:52:11;;;;;;;11.20;3.45;;;9.30;67.30;;;;;;6325622;22;20247;-81
2022/02/26 09:54:38;;;;;;;17.35;3.50;;;9.20;68.50;;;;;;6351507;22;20187;-81
2022/02/26 09:57:04;;;;;;;13.27;2.97;;;9.10;67.30;;;;;;6325400;22;20022;-80
2022/02/26 09:59:30;;;;;;;17.90;3.60;;;9.10;67.70;;;;;;6325070;22;20014;-80
2022/02/26 10:01:57;;;;;;;23.60;3.90;;;9.10;67.80;;;;;;6324233;22;19990;-81
2022/02/26 10:04:24;;;;;;;11.73;3.72;;;9.10;67.70;;;;;;6350906;22;20469;-81
2022/02/26 10:06:50;;;;;;;12.13;2.97;;;9.10;67.20;;;;;;6376959;22;20012;-81
2022/02/26 10:09:15;;;;;;;9.20;3.35;;;9.00;66.90;;;;;;6324481;22;20010;-81
2022/02/26 10:11:42;;;;;;;14.95;2.75;;;9.10;67.10;;;;;;6324642;22;20018;-81
2022/02/26 10:14:11;;;;;;;28.10;3.63;;;9.10;66.40;;;;;;6324615;22;20067;-81
2022/02/26 10:16:51;;;;;;;14.10;3.25;;;9.10;65.30;;;;;;6352534;22;20003;-81
2022/02/26 10:19:26;;;;;;;7.50;2.08;;;9.10;65.40;;;;;;6326758;22;20002;-81
2022/02/26 10:21:57;;;;;;;17.00;3.97;;;9.00;64.60;;;;;;6326818;22;20324;-81
2022/02/26 10:24:23;;;;;;;13.10;3.08;;;9.00;65.20;;;;;;6326610;22;20070;-81
2022/02/26 10:26:51;;;;;;;14.90;3.55;;;9.20;65.30;;;;;;6326634;22;20342;-81
2022/02/26 10:29:21;;;;;;;16.13;3.30;;;9.40;64.20;;;;;;6352542;22;20011;-81
2022/02/26 10:32:08;;;;;;;12.00;3.33;;;9.50;64.80;;;;;;6327355;22;20018;-80
2022/02/26 10:34:46;;;;;;;17.02;3.63;;;9.60;64.90;;;;;;6353033;22;20043;-81
2022/02/26 10:37:19;;;;;;;11.65;3.15;;;9.60;64.60;;;;;;6327165;22;20010;-82
2022/02/26 10:39:45;;;;;;;8.90;2.90;;;9.60;64.80;;;;;;6353519;22;20003;-82
2022/02/26 10:42:21;;;;;;;15.55;3.40;;;9.50;64.20;;;;;;6327714;22;20026;-80
2022/02/26 10:45:00;;;;;;;11.70;2.70;;;9.60;64.30;;;;;;6327269;22;20009;-82
2022/02/26 10:47:28;;;;;;;14.60;3.13;;;9.70;63.90;;;;;;6350169;22;20015;-80
2022/02/26 10:49:55;;;;;;;14.70;2.85;;;9.60;61.80;;;;;;6379084;22;20010;-82
2022/02/26 10:52:21;;;;;;;14.40;3.05;;;9.50;62.50;;;;;;6379310;22;20040;-80
2022/02/26 10:54:55;;;;;;;14.32;3.60;;;9.70;61.50;;;;;;6301286;22;20217;-81
2022/02/26 10:57:21;;;;;;;15.75;3.35;;;9.80;61.50;;;;;;6327621;22;20017;-82
2022/02/26 10:59:53;;;;;;;19.02;3.65;;;9.80;60.10;;;;;;6353100;22;20089;-82
2022/02/26 11:02:25;;;;;;;16.42;3.78;;;9.90;60.40;;;;;;6352772;22;20275;-80
2022/02/26 11:04:53;;;;;;;20.73;3.45;;;9.90;59.20;;;;;;6379638;22;20002;-81
2022/02/26 11:07:20;;;;;;;12.50;3.47;;;9.90;58.10;;;;;;6353452;22;20026;-82
2022/02/26 11:09:51;;;;;;;13.13;3.22;;;9.80;58.70;;;;;;6353139;22;20354;-80
2022/02/26 11:12:18;;;;;;;11.93;2.97;;;9.80;58.00;;;;;;6354035;22;20247;-82
2022/02/26 11:14:54;;;;;;;13.18;2.97;;;9.80;57.20;;;;;;6353630;22;20024;-82
2022/02/26 11:17:23;;;;;;;7.40;2.13;;;9.90;57.60;;;;;;6378308;22;19998;-83
2022/02/26 11:19:54;;;;;;;9.23;1.80;;;9.90;55.70;;;;;;6352056;22;20102;-80
2022/02/26 11:22:22;;;;;;;14.30;2.72;;;9.80;55.40;;;;;;6352008;22;20242;-82
2022/02/26 11:24:49;;;;;;;16.02;2.75;;;9.80;55.00;;;;;;6378277;22;20014;-80
2022/02/26 11:27:15;;;;;;;9.68;2.90;;;9.80;55.50;;;;;;6351802;22;20013;-81
2022/02/26 11:29:41;;;;;;;10.23;2.45;;;9.90;55.70;;;;;;6300137;22;20302;-82
2022/02/26 11:32:12;;;;;;;12.75;2.30;;;10.00;55.70;;;;;;6351471;22;20072;-80
2022/02/26 11:34:38;;;;;;;12.77;2.83;;;10.00;55.10;;;;;;6352436;22;20020;-81
2022/02/26 11:37:09;;;;;;;14.40;2.80;;;10.10;55.40;;;;;;6352600;22;20010;-81
2022/02/26 11:39:49;;;;;;;12.30;3.13;;;10.00;54.90;;;;;;6378919;22;19998;-80
2022/02/26 11:42:22;;;;;;;14.73;3.35;;;10.00;55.20;;;;;;6351495;22;20010;-81
2022/02/26 11:44:54;;;;;;;9.88;2.58;;;10.10;55.30;;;;;;6377595;22;20009;-81
2022/02/26 11:47:22;;;;;;;11.63;2.85;;;10.10;54.80;;;;;;6378409;22;20011;-82
2022/02/26 11:50:01;;;;;;;9.25;2.50;;;10.20;54.30;;;;;;6351503;22;20006;-80
2022/02/26 11:53:02;;;;;;;7.97;2.28;;;10.20;53.70;;;;;;6351592;22;20002;-80
2022/02/26 11:55:33;;;;;;;9.75;2.60;;;10.10;53.10;;;;;;6351581;22;20002;-80
2022/02/26 11:58:09;;;;;;;11.32;2.88;;;10.10;53.90;;;;;;6325314;22;20011;-80
2022/02/26 12:00:45;;;;;;;14.85;3.33;;;10.20;54.10;;;;;;6351707;22;20005;-81
2022/02/26 12:03:54;;;;;;;12.88;3.30;;;10.30;53.90;;;;;;6351441;22;20002;-81
2022/02/26 12:06:28;;;;;;;10.38;2.85;;;10.30;54.10;;;;;;6351735;22;20198;-81
2022/02/26 12:08:55;;;;;;;9.45;3.03;;;10.40;54.70;;;;;;6325816;22;20006;-81
2022/02/26 12:11:20;;;;;;;8.55;3.58;;;10.50;54.50;;;;;;6351953;22;20006;-82
2022/02/26 12:14:00;;;;;;;11.50;2.95;;;10.60;53.40;;;;;;6325888;22;20185;-82
2022/02/26 12:16:28;;;;;;;8.13;2.03;;;10.50;52.40;;;;;;6351452;22;20010;-82
2022/02/26 12:18:58;;;;;;;15.02;2.80;;;10.30;52.30;;;;;;6299061;22;20305;-80
2022/02/26 12:21:30;;;;;;;12.73;3.30;;;10.20;52.40;;;;;;6325404;22;20037;-81
2022/02/26 12:24:04;;;;;;;12.63;2.78;;;10.10;51.50;;;;;;6325303;22;20324;-81
2022/02/26 12:26:43;;;;;;;16.48;2.75;;;9.90;51.40;;;;;;6325226;22;20006;-81
2022/02/26 12:29:09;;;;;;;13.32;3.35;;;9.90;51.70;;;;;;6325373;22;20239;-81
2022/02/26 12:31:57;;;;;;;13.98;2.47;;;10.00;51.40;;;;;;6351536;22;19990;-82
2022/02/26 12:34:26;;;;;;;11.05;2.67;;;10.00;50.80;;;;;;6351195;22;20006;-81
2022/02/26 12:37:15;;;;;;;9.07;2.17;;;9.90;50.60;;;;;;6325559;22;19997;-81
2022/02/26 12:39:49;;;;;;;6.90;2.25;;;9.90;50.70;;;;;;6326660;22;20003;-81
2022/02/26 12:42:21;;;;;;;8.63;2.22;;;9.90;50.30;;;;;;6352079;22;20057;-82
2022/02/26 12:44:49;;;;;;;7.15;2.33;;;10.00;50.40;;;;;;6352294;22;20301;-80
2022/02/26 12:47:15;;;;;;;15.10;2.88;;;10.10;51.30;;;;;;6374235;22;20014;-82
2022/02/26 12:49:41;;;;;;;6.68;2.25;;;10.30;50.70;;;;;;6353181;22;20245;-82
2022/02/26 12:52:09;;;;;;;8.98;2.15;;;10.30;49.50;;;;;;6353520;22;20006;-82
2022/02/26 12:54:36;;;;;;;12.88;2.40;;;10.30;49.40;;;;;;6353493;22;20032;-82
2022/02/26 12:57:03;;;;;;;9.27;2.38;;;10.40;50.40;;;;;;6352113;22;20191;-81
2022/02/26 12:59:32;;;;;;;7.57;2.53;;;10.60;49.80;;;;;;6352851;22;20006;-82
2022/02/26 13:01:59;;;;;;;14.48;2.72;;;10.60;49.90;;;;;;6388068;22;20046;-81
2022/02/26 13:04:36;;;;;;;10.30;1.77;;;10.70;49.00;;;;;;6344590;22;19986;-82
2022/02/26 13:07:08;;;;;;;5.55;2.15;;;10.50;47.90;;;;;;6384241;22;20013;-82
2022/02/26 13:09:51;;;;;;;6.65;2.08;;;10.40;49.00;;;;;;6382594;22;20198;-81
2022/02/26 13:12:23;;;;;;;10.50;2.50;;;10.40;49.10;;;;;;6383097;22;20249;-80
2022/02/26 13:15:15;;;;;;;8.30;2.67;;;10.40;49.50;;;;;;6383173;22;20009;-82
2022/02/26 13:17:48;;;;;;;11.68;3.15;;;10.40;50.80;;;;;;6262152;22;20031;-82
2022/02/26 13:20:23;;;;;;;11.32;3.72;;;10.20;51.30;;;;;;6262135;22;20018;-82
2022/02/26 13:22:51;;;;;;;11.48;3.85;;;10.00;51.90;;;;;;6259262;22;20023;-82
2022/02/26 13:25:19;;;;;;;19.77;3.92;;;9.90;52.30;;;;;;6258304;22;20070;-82
2022/02/26 13:27:45;;;;;;;;;;;9.80;52.40;;;;;;6233442;22;20311;-82
2022/02/26 13:30:14;;;;;;;11.18;3.13;;;9.70;52.80;;;;;;6258401;22;19899;-81
2022/02/26 13:32:45;;;;;;;11.15;2.53;;;9.80;52.80;;;;;;6262101;22;20066;-81
2022/02/26 13:35:13;;;;;;;12.40;3.25;;;9.90;52.10;;;;;;6260792;22;20000;-81
2022/02/26 13:37:39;;;;;;;9.98;3.33;;;10.00;51.80;;;;;;6234382;22;20335;-82
2022/02/26 13:40:07;;;;;;;11.83;3.30;;;10.20;51.90;;;;;;6261804;22;20068;-81
2022/02/26 13:42:35;;;;;;;23.55;5.50;;;10.40;52.10;;;;;;6262286;22;20004;-81
2022/02/26 13:45:08;;;;;;;13.35;4.28;;;10.50;51.60;;;;;;6234890;22;20231;-80
2022/02/26 13:47:36;;;;;;;18.25;5.00;;;10.50;51.30;;;;;;6260969;22;20262;-82
2022/02/26 13:50:05;;;;;;;14.63;4.47;;;10.60;51.70;;;;;;6234438;22;20014;-78
2022/02/26 13:52:40;;;;;;;11.82;4.25;;;10.70;52.30;;;;;;6258225;22;19995;-82
2022/02/26 13:55:07;;;;;;;18.42;4.95;;;11.00;51.90;;;;;;6350667;22;20002;-82
2022/02/26 13:57:39;;;;;;;14.55;3.85;;;11.10;51.00;;;;;;6330124;22;20009;-82
2022/02/26 14:00:14;;;;;;;15.57;4.10;;;11.10;51.20;;;;;;6365984;22;20006;-82
2022/02/26 14:02:54;;;;;;;23.30;4.55;;;10.70;51.30;;;;;;6396958;22;20010;-82
2022/02/26 14:05:24;;;;;;;17.40;4.43;;;10.40;52.10;;;;;;6395484;22;19995;-81
2022/02/26 14:07:52;;;;;;;14.98;4.53;;;10.20;53.70;;;;;;6368378;22;19998;-81
2022/02/26 14:10:18;;;;;;;19.50;4.60;;;10.10;53.70;;;;;;6368198;22;20337;-78
2022/02/26 14:12:46;;;;;;;20.63;5.20;;;10.10;54.00;;;;;;6381157;22;20038;-79
2022/02/26 14:15:14;;;;;;;17.67;4.75;;;10.00;54.00;;;;;;6382811;22;20017;-79
2022/02/26 14:17:41;;;;;;;20.23;5.22;;;10.00;55.00;;;;;;6355960;22;20000;-79
2022/02/26 14:20:12;;;;;;;20.02;5.10;;;9.90;54.50;;;;;;6329370;22;20391;-78
2022/02/26 14:22:39;;;;;;;17.55;5.38;;;9.90;55.10;;;;;;6351864;22;20014;-81
2022/02/26 14:25:10;;;;;;;;;;;9.80;55.40;;;;;;6377587;22;20173;-82
2022/02/26 14:27:46;;;;;;;16.20;4.40;;;9.70;55.40;;;;;;6377579;22;19898;-82
2022/02/26 14:30:23;;;;;;;18.52;5.65;;;9.60;55.40;;;;;;6379162;22;20029;-82
2022/02/26 14:32:56;;;;;;;18.05;4.93;;;9.60;55.50;;;;;;6377974;22;20015;-82
2022/02/26 14:35:25;;;;;;;13.00;4.68;;;9.60;55.60;;;;;;6376931;22;20010;-83
2022/02/26 14:37:51;;;;;;;14.77;6.03;;;9.50;55.50;;;;;;6377287;22;20213;-82
2022/02/26 14:40:22;;;;;;;17.52;5.07;;;9.40;55.90;;;;;;6377124;22;20021;-82
2022/02/26 14:42:50;;;;;;;20.83;5.32;;;9.40;55.80;;;;;;6351707;22;20191;-82
2022/02/26 14:45:16;;;;;;;;;;;9.30;56.40;;;;;;6351178;22;20014;-82
2022/02/26 14:47:43;;;;;;;75.23;9.73;;;9.30;56.20;;;;;;6351386;22;19902;-82
2022/02/26 14:50:10;;;;;;;39.42;6.40;;;9.30;56.50;;;;;;6325212;22;20236;-83
2022/02/26 14:52:37;;;;;;;19.52;6.00;;;9.30;56.50;;;;;;6324589;22;20013;-82
2022/02/26 14:55:11;;;;;;;19.75;5.18;;;9.30;56.60;;;;;;6350169;22;20041;-82
2022/02/26 14:57:38;;;;;;;18.55;5.55;;;9.30;56.90;;;;;;6325708;22;20007;-83
2022/02/26 15:00:04;;;;;;;31.45;5.97;;;9.30;57.00;;;;;;6351500;22;20351;-82
2022/02/26 15:02:31;;;;;;;17.33;4.97;;;9.10;57.10;;;;;;6326489;22;20006;-83
2022/02/26 15:04:57;;;;;;;21.52;5.28;;;9.20;57.50;;;;;;6326832;22;20013;-79
2022/02/26 15:07:22;;;;;;;20.27;4.75;;;9.20;57.40;;;;;;6326536;22;20025;-78
2022/02/26 15:09:48;;;;;;;19.48;5.07;;;9.30;57.40;;;;;;6353157;22;20105;-78
2022/02/26 15:12:14;;;;;;;12.55;4.10;;;9.20;56.80;;;;;;6327173;22;20006;-81
2022/02/26 15:14:41;;;;;;;19.08;4.47;;;9.20;56.60;;;;;;6352145;22;20355;-81
2022/02/26 15:17:06;;;;;;;12.90;4.23;;;9.10;56.50;;;;;;6301183;22;20025;-79
2022/02/26 15:19:33;;;;;;;17.13;4.88;;;9.00;56.80;;;;;;6352978;22;20040;-82
2022/02/26 15:22:00;;;;;;;13.80;4.78;;;9.00;56.80;;;;;;6353194;22;20002;-80
2022/02/26 15:24:27;;;;;;;66.10;8.50;;;9.00;56.70;;;;;;6352715;22;20020;-82
2022/02/26 15:26:54;;;;;;;16.35;4.22;;;9.00;56.70;;;;;;6326878;22;19995;-82
2022/02/26 15:29:19;;;;;;;21.02;6.25;;;9.00;56.80;;;;;;6326161;22;20010;-82
2022/02/26 15:31:45;;;;;;;12.60;3.88;;;8.90;56.90;;;;;;6353537;22;20006;-82
2022/02/26 15:34:12;;;;;;;13.65;4.82;;;8.90;57.10;;;;;;6380408;22;20310;-81
2022/02/26 15:36:38;;;;;;;40.38;7.57;;;8.90;57.20;;;;;;6326848;22;20389;-81
2022/02/26 15:39:06;;;;;;;17.83;4.82;;;9.00;57.10;;;;;;6326863;22;20058;-80
2022/02/26 15:41:35;;;;;;;13.63;4.55;;;8.90;57.30;;;;;;6327723;22;20280;-81
2022/02/26 15:44:03;;;;;;;34.53;6.03;;;8.90;57.60;;;;;;6379373;22;20243;-80
2022/02/26 15:46:30;;;;;;;14.35;5.32;;;8.90;57.60;;;;;;6364101;22;20014;-81
2022/02/26 15:48:56;;;;;;;13.85;4.85;;;8.90;57.60;;;;;;6353093;22;20018;-81
2022/02/26 15:51:22;;;;;;;14.48;4.10;;;9.00;57.40;;;;;;6352942;22;20313;-80
2022/02/26 15:53:48;;;;;;;14.55;4.82;;;9.00;57.80;;;;;;6352500;22;20014;-81
2022/02/26 15:56:14;;;;;;;19.50;5.85;;;9.00;57.50;;;;;;6326722;22;20347;-81
2022/02/26 15:58:40;;;;;;;16.40;5.07;;;9.00;57.60;;;;;;6352300;22;20231;-80
2022/02/26 16:01:06;;;;;;;20.13;4.85;;;8.90;57.50;;;;;;6352575;22;20012;-81
2022/02/26 16:03:32;;;;;;;25.30;5.65;;;8.90;57.60;;;;;;6325302;22;20010;-79
2022/02/26 16:05:58;;;;;;;20.83;5.13;;;8.90;57.60;;;;;;6351973;22;20006;-81
2022/02/26 16:08:25;;;;;;;20.02;5.25;;;8.80;57.60;;;;;;6380033;22;20071;-80
2022/02/26 16:10:51;;;;;;;17.20;4.88;;;8.80;57.80;;;;;;6326403;22;19998;-80
2022/02/26 16:13:18;;;;;;;18.63;5.88;;;8.70;57.90;;;;;;6326507;22;20047;-81
2022/02/26 16:15:44;;;;;;;16.33;4.75;;;8.70;57.90;;;;;;6352868;22;20419;-80
2022/02/26 16:18:10;;;;;;;10.80;4.47;;;8.60;57.90;;;;;;6352107;22;20006;-80
2022/02/26 16:20:36;;;;;;;18.65;5.80;;;8.60;58.10;;;;;;6352393;22;20010;-79
2022/02/26 16:23:02;;;;;;;19.27;4.80;;;8.50;58.40;;;;;;6325890;22;20256;-81
2022/02/26 16:25:29;;;;;;;16.95;4.53;;;8.50;58.40;;;;;;6352604;22;20012;-81
2022/02/26 16:27:55;;;;;;;17.48;4.63;;;8.50;58.60;;;;;;6379056;22;20290;-81
2022/02/26 16:30:23;;;;;;;11.27;3.67;;;8.50;58.70;;;;;;6352535;22;20051;-80
2022/02/26 16:32:49;;;;;;;21.23;4.60;;;8.40;58.90;;;;;;6352328;22;20232;-81
2022/02/26 16:35:14;;;;;;;14.30;4.80;;;8.50;59.50;;;;;;6325607;22;20006;-81
2022/02/26 16:37:40;;;;;;;13.95;5.03;;;8.50;60.80;;;;;;6380378;22;20056;-81
2022/02/26 16:40:07;;;;;;;23.50;7.30;;;8.50;60.80;;;;;;6351796;22;20021;-81